createdAt,value
2018-12-01T00:00:59.623Z,8.36
2018-12-01T00:01:59.621Z,8.47
2018-12-01T00:03:01.211Z,8.47
2018-12-01T00:03:59.605Z,8.40
2018-12-01T00:04:59.571Z,8.30
2018-12-01T00:05:59.569Z,8.35
2018-12-01T00:06:59.563Z,8.18
2018-12-01T00:07:59.627Z,8.14
2018-12-01T00:08:59.542Z,8.33
2018-12-01T00:09:59.535Z,8.50
2018-12-01T00:10:59.523Z,8.55
2018-12-01T00:11:59.499Z,8.55
2018-12-01T00:12:59.546Z,8.44
2018-12-01T00:13:59.478Z,8.42
2018-12-01T00:14:59.469Z,8.50
2018-12-01T00:15:59.469Z,8.36
2018-12-01T00:16:59.454Z,8.57
2018-12-01T00:18:01.201Z,8.55
2018-12-01T00:18:59.428Z,8.54
2018-12-01T00:19:59.416Z,8.48
2018-12-01T00:20:59.403Z,8.50
2018-12-01T00:21:59.388Z,8.48
2018-12-01T00:22:59.435Z,8.50
2018-12-01T00:23:59.369Z,8.53
2018-12-01T00:25:00.514Z,8.60
2018-12-01T00:25:59.355Z,8.68
2018-12-01T00:26:59.330Z,8.63
2018-12-01T00:27:59.354Z,8.79
2018-12-01T00:28:59.314Z,8.84
2018-12-01T00:29:59.385Z,8.91
2018-12-01T00:30:59.294Z,8.78
2018-12-01T00:31:59.281Z,8.91
2018-12-01T00:32:59.294Z,8.96
2018-12-01T00:33:59.305Z,8.99
2018-12-01T00:34:59.256Z,8.94
2018-12-01T00:35:59.236Z,8.87
2018-12-01T00:36:59.226Z,8.79
2018-12-01T00:37:59.276Z,8.94
2018-12-01T00:38:59.211Z,8.86
2018-12-01T00:39:59.240Z,8.84
2018-12-01T00:40:59.183Z,8.76
2018-12-01T00:41:59.177Z,8.73
2018-12-01T00:42:59.191Z,8.66
2018-12-01T00:43:59.152Z,8.65
2018-12-01T00:44:59.138Z,8.60
2018-12-01T00:45:59.122Z,8.62
2018-12-01T00:46:59.131Z,8.58
2018-12-01T00:47:59.114Z,8.45
2018-12-01T00:48:59.129Z,8.39
2018-12-01T00:49:59.082Z,8.50
2018-12-01T00:50:59.067Z,8.51
2018-12-01T00:51:59.112Z,8.48
2018-12-01T00:52:59.053Z,8.44
2018-12-01T00:53:59.060Z,8.50
2018-12-01T00:54:59.029Z,8.45
2018-12-01T00:55:59.009Z,8.29
2018-12-01T00:56:59.015Z,8.29
2018-12-01T00:57:59.002Z,8.14
2018-12-01T00:58:58.997Z,8.14
2018-12-01T00:59:58.973Z,8.04
2018-12-01T01:00:58.967Z,7.93
2018-12-01T01:01:58.991Z,7.99
2018-12-01T01:02:58.944Z,7.97
2018-12-01T01:03:58.937Z,7.90
2018-12-01T01:04:58.921Z,7.71
2018-12-01T01:05:58.906Z,7.67
2018-12-01T01:06:58.895Z,7.71
2018-12-01T01:07:58.923Z,7.69
2018-12-01T01:08:58.934Z,7.60
2018-12-01T01:09:58.861Z,7.49
2018-12-01T01:10:58.857Z,7.44
2018-12-01T01:11:58.841Z,7.40
2018-12-01T01:12:58.824Z,7.29
2018-12-01T01:13:58.835Z,7.16
2018-12-01T01:14:58.800Z,7.05
2018-12-01T01:15:58.818Z,7.04
2018-12-01T01:16:58.781Z,6.98
2018-12-01T01:17:58.777Z,7.01
2018-12-01T01:18:58.795Z,6.97
2018-12-01T01:19:58.737Z,6.90
2018-12-01T01:20:58.740Z,6.84
2018-12-01T01:21:58.738Z,6.83
2018-12-01T01:22:58.712Z,6.89
2018-12-01T01:23:58.723Z,6.87
2018-12-01T01:24:58.736Z,6.91
2018-12-01T01:25:58.694Z,7.01
2018-12-01T01:26:58.661Z,7.09
2018-12-01T01:27:58.662Z,7.13
2018-12-01T01:28:58.661Z,6.97
2018-12-01T01:29:58.626Z,6.83
2018-12-01T01:30:58.629Z,6.81
2018-12-01T01:31:58.626Z,6.71
2018-12-01T01:32:58.602Z,6.69
2018-12-01T01:33:58.680Z,6.68
2018-12-01T01:34:58.588Z,6.65
2018-12-01T01:35:58.573Z,6.47
2018-12-01T01:36:58.559Z,6.50
2018-12-01T01:37:58.540Z,6.32
2018-12-01T01:38:58.578Z,6.35
2018-12-01T01:39:58.525Z,6.30
2018-12-01T01:40:58.507Z,6.35
2018-12-01T01:41:58.493Z,6.33
2018-12-01T01:42:58.494Z,6.36
2018-12-01T01:43:58.503Z,6.32
2018-12-01T01:44:58.474Z,6.40
2018-12-01T01:45:58.455Z,6.35
2018-12-01T01:46:58.450Z,6.32
2018-12-01T01:47:58.434Z,6.30
2018-12-01T01:48:58.436Z,6.25
2018-12-01T01:49:58.409Z,6.14
2018-12-01T01:50:58.439Z,6.22
2018-12-01T01:51:58.387Z,6.11
2018-12-01T01:52:58.378Z,6.09
2018-12-01T01:53:58.390Z,6.07
2018-12-01T01:54:58.350Z,6.06
2018-12-01T01:55:58.341Z,6.14
2018-12-01T01:56:58.321Z,6.19
2018-12-01T01:57:58.322Z,6.28
2018-12-01T01:58:58.336Z,6.40
2018-12-01T01:59:58.328Z,6.71
2018-12-01T02:00:58.279Z,6.73
2018-12-01T02:01:58.284Z,6.62
2018-12-01T02:02:58.263Z,6.53
2018-12-01T02:03:58.301Z,6.51
2018-12-01T02:04:58.240Z,6.46
2018-12-01T02:05:58.236Z,6.66
2018-12-01T02:06:58.214Z,6.65
2018-12-01T02:07:58.207Z,6.63
2018-12-01T02:08:58.223Z,6.65
2018-12-01T02:09:58.212Z,6.50
2018-12-01T02:10:58.174Z,6.41
2018-12-01T02:11:58.167Z,6.43
2018-12-01T02:12:58.158Z,6.38
2018-12-01T02:13:58.141Z,6.38
2018-12-01T02:14:58.155Z,6.35
2018-12-01T02:15:58.153Z,6.35
2018-12-01T02:16:58.109Z,6.40
2018-12-01T02:17:58.092Z,6.40
2018-12-01T02:18:58.090Z,6.43
2018-12-01T02:19:58.094Z,6.54
2018-12-01T02:20:58.061Z,6.71
2018-12-01T02:21:58.049Z,6.68
2018-12-01T02:22:58.062Z,6.81
2018-12-01T02:23:58.021Z,6.98
2018-12-01T02:24:58.038Z,7.02
2018-12-01T02:25:58.008Z,7.07
2018-12-01T02:26:57.992Z,7.24
2018-12-01T02:27:57.984Z,7.23
2018-12-01T02:28:57.971Z,7.32
2018-12-01T02:29:58.008Z,7.26
2018-12-01T02:30:57.945Z,7.19
2018-12-01T02:31:57.940Z,7.17
2018-12-01T02:32:57.921Z,7.17
2018-12-01T02:33:57.919Z,7.37
2018-12-01T02:34:57.931Z,7.32
2018-12-01T02:35:57.884Z,7.26
2018-12-01T02:36:57.901Z,7.20
2018-12-01T02:37:57.874Z,7.40
2018-12-01T02:38:57.854Z,7.44
2018-12-01T02:39:57.875Z,7.40
2018-12-01T02:40:57.838Z,7.40
2018-12-01T02:41:57.819Z,7.32
2018-12-01T02:42:57.810Z,7.34
2018-12-01T02:43:57.802Z,7.31
2018-12-01T02:44:57.813Z,7.26
2018-12-01T02:45:57.773Z,7.19
2018-12-01T02:46:57.761Z,7.24
2018-12-01T02:47:57.790Z,7.34
2018-12-01T02:48:57.739Z,7.44
2018-12-01T02:49:57.758Z,7.59
2018-12-01T02:50:57.740Z,7.52
2018-12-01T02:51:57.704Z,7.44
2018-12-01T02:52:57.705Z,7.34
2018-12-01T02:53:57.690Z,7.09
2018-12-01T02:54:57.668Z,7.12
2018-12-01T02:55:57.702Z,6.72
2018-12-01T02:56:57.645Z,6.72
2018-12-01T02:57:57.634Z,6.80
2018-12-01T02:58:57.627Z,6.89
2018-12-01T02:59:57.685Z,6.91
2018-12-01T03:00:57.627Z,6.72
2018-12-01T03:01:57.596Z,6.58
2018-12-01T03:02:57.627Z,6.59
2018-12-01T03:03:57.575Z,6.50
2018-12-01T03:04:57.569Z,6.33
2018-12-01T03:05:57.569Z,6.35
2018-12-01T03:06:57.539Z,6.63
2018-12-01T03:07:57.535Z,6.99
2018-12-01T03:08:57.572Z,7.04
2018-12-01T03:09:57.507Z,7.04
2018-12-01T03:10:57.523Z,6.87
2018-12-01T03:11:57.478Z,6.79
2018-12-01T03:12:57.476Z,6.84
2018-12-01T03:13:57.460Z,6.84
2018-12-01T03:14:57.447Z,6.71
2018-12-01T03:15:57.462Z,6.87
2018-12-01T03:16:57.425Z,7.01
2018-12-01T03:17:57.427Z,6.94
2018-12-01T03:18:57.408Z,6.89
2018-12-01T03:19:57.399Z,6.90
2018-12-01T03:20:57.406Z,6.72
2018-12-01T03:21:57.377Z,6.77
2018-12-01T03:22:57.360Z,6.68
2018-12-01T03:23:57.369Z,6.69
2018-12-01T03:24:57.339Z,6.66
2018-12-01T03:25:57.352Z,6.80
2018-12-01T03:26:57.310Z,6.80
2018-12-01T03:27:57.309Z,6.79
2018-12-01T03:28:57.287Z,6.66
2018-12-01T03:29:57.281Z,6.76
2018-12-01T03:30:57.343Z,6.77
2018-12-01T03:31:57.267Z,6.90
2018-12-01T03:32:57.253Z,6.86
2018-12-01T03:33:57.238Z,6.77
2018-12-01T03:34:57.235Z,6.66
2018-12-01T03:35:57.225Z,6.68
2018-12-01T03:36:57.225Z,6.65
2018-12-01T03:37:57.194Z,6.86
2018-12-01T03:38:57.181Z,6.87
2018-12-01T03:39:57.211Z,6.83
2018-12-01T03:40:57.163Z,7.02
2018-12-01T03:41:57.174Z,7.02
2018-12-01T03:42:57.141Z,6.97
2018-12-01T03:43:57.121Z,7.15
2018-12-01T03:44:57.114Z,7.26
2018-12-01T03:45:57.129Z,7.12
2018-12-01T03:46:57.123Z,7.08
2018-12-01T03:47:57.069Z,7.37
2018-12-01T03:48:57.064Z,7.24
2018-12-01T03:49:57.113Z,7.13
2018-12-01T03:50:57.048Z,7.12
2018-12-01T03:51:57.053Z,7.05
2018-12-01T03:52:57.054Z,7.08
2018-12-01T03:53:57.001Z,7.02
2018-12-01T03:54:57.000Z,7.12
2018-12-01T03:55:56.989Z,7.26
2018-12-01T03:56:56.997Z,7.32
2018-12-01T03:57:56.968Z,7.34
2018-12-01T03:58:56.950Z,7.35
2018-12-01T03:59:56.947Z,7.42
2018-12-01T04:00:56.933Z,7.71
2018-12-01T04:01:56.946Z,7.72
2018-12-01T04:02:56.902Z,7.94
2018-12-01T04:03:56.895Z,7.89
2018-12-01T04:04:56.882Z,7.69
2018-12-01T04:05:56.916Z,7.59
2018-12-01T04:06:56.930Z,7.69
2018-12-01T04:07:56.852Z,7.74
2018-12-01T04:08:56.848Z,7.82
2018-12-01T04:09:56.825Z,7.96
2018-12-01T04:10:56.821Z,8.00
2018-12-01T04:11:56.832Z,7.90
2018-12-01T04:12:56.796Z,7.79
2018-12-01T04:13:56.782Z,7.74
2018-12-01T04:14:56.773Z,7.44
2018-12-01T04:15:56.765Z,7.50
2018-12-01T04:16:56.767Z,7.79
2018-12-01T04:17:56.747Z,7.74
2018-12-01T04:18:56.733Z,7.77
2018-12-01T04:19:56.719Z,8.12
2018-12-01T04:20:56.704Z,8.07
2018-12-01T04:21:56.741Z,7.85
2018-12-01T04:22:56.690Z,7.71
2018-12-01T04:23:56.678Z,7.53
2018-12-01T04:24:56.667Z,7.75
2018-12-01T04:25:56.658Z,7.79
2018-12-01T04:26:56.654Z,7.84
2018-12-01T04:27:56.637Z,7.75
2018-12-01T04:28:56.663Z,7.75
2018-12-01T04:29:56.602Z,7.66
2018-12-01T04:30:56.587Z,7.85
2018-12-01T04:31:56.610Z,7.81
2018-12-01T04:32:56.563Z,7.72
2018-12-01T04:33:56.603Z,7.63
2018-12-01T04:34:56.546Z,7.82
2018-12-01T04:35:56.539Z,8.15
2018-12-01T04:36:56.553Z,7.99
2018-12-01T04:37:56.521Z,7.82
2018-12-01T04:38:56.497Z,7.58
2018-12-01T04:39:56.489Z,7.63
2018-12-01T04:40:56.481Z,7.44
2018-12-01T04:41:56.488Z,7.59
2018-12-01T04:42:56.479Z,7.52
2018-12-01T04:43:56.446Z,7.40
2018-12-01T04:44:56.446Z,7.31
2018-12-01T04:45:56.430Z,7.16
2018-12-01T04:46:56.433Z,7.13
2018-12-01T04:47:56.410Z,7.16
2018-12-01T04:48:56.402Z,7.13
2018-12-01T04:49:56.374Z,7.09
2018-12-01T04:50:56.370Z,7.05
2018-12-01T04:51:56.373Z,6.87
2018-12-01T04:52:56.348Z,6.77
2018-12-01T04:53:56.328Z,7.04
2018-12-01T04:54:56.348Z,7.19
2018-12-01T04:55:56.312Z,7.23
2018-12-01T04:56:56.320Z,7.16
2018-12-01T04:57:56.291Z,7.08
2018-12-01T04:58:56.287Z,6.97
2018-12-01T04:59:56.271Z,6.95
2018-12-01T05:00:56.258Z,7.01
2018-12-01T05:01:56.263Z,6.98
2018-12-01T05:02:56.226Z,7.02
2018-12-01T05:03:56.226Z,6.94
2018-12-01T05:04:56.203Z,7.19
2018-12-01T05:05:56.202Z,7.12
2018-12-01T05:06:56.207Z,6.98
2018-12-01T05:07:56.263Z,6.89
2018-12-01T05:08:56.170Z,6.76
2018-12-01T05:09:56.163Z,6.83
2018-12-01T05:10:56.152Z,6.77
2018-12-01T05:11:56.152Z,6.80
2018-12-01T05:12:56.176Z,6.63
2018-12-01T05:13:56.113Z,6.50
2018-12-01T05:14:56.094Z,6.38
2018-12-01T05:15:56.091Z,6.46
2018-12-01T05:16:56.098Z,6.46
2018-12-01T05:17:56.064Z,6.43
2018-12-01T05:18:56.048Z,6.36
2018-12-01T05:19:56.088Z,6.38
2018-12-01T05:20:56.024Z,6.43
2018-12-01T05:21:56.049Z,6.51
2018-12-01T05:22:56.007Z,6.51
2018-12-01T05:23:55.988Z,6.68
2018-12-01T05:24:55.980Z,6.71
2018-12-01T05:25:55.967Z,6.69
2018-12-01T05:26:55.985Z,6.69
2018-12-01T05:27:56.007Z,6.66
2018-12-01T05:28:55.943Z,6.66
2018-12-01T05:29:55.927Z,6.51
2018-12-01T05:30:55.908Z,6.26
2018-12-01T05:31:55.935Z,6.00
2018-12-01T05:32:55.894Z,5.85
2018-12-01T05:33:55.892Z,5.64
2018-12-01T05:34:55.899Z,5.67
2018-12-01T05:35:55.866Z,5.59
2018-12-01T05:36:55.860Z,5.56
2018-12-01T05:37:55.870Z,5.53
2018-12-01T05:38:55.836Z,5.37
2018-12-01T05:39:55.823Z,5.32
2018-12-01T05:40:55.855Z,5.13
2018-12-01T05:41:55.794Z,5.17
2018-12-01T05:42:55.808Z,5.14
2018-12-01T05:43:55.781Z,4.92
2018-12-01T05:44:55.759Z,4.83
2018-12-01T05:45:55.762Z,4.80
2018-12-01T05:46:55.734Z,4.84
2018-12-01T05:47:55.743Z,4.91
2018-12-01T05:48:55.729Z,4.77
2018-12-01T05:49:55.723Z,4.83
2018-12-01T05:50:55.694Z,4.76
2018-12-01T05:51:55.677Z,4.76
2018-12-01T05:52:55.697Z,4.79
2018-12-01T05:53:55.653Z,4.75
2018-12-01T05:54:55.655Z,4.84
2018-12-01T05:55:55.672Z,4.89
2018-12-01T05:56:55.635Z,4.84
2018-12-01T05:57:55.645Z,4.98
2018-12-01T05:58:55.610Z,4.95
2018-12-01T05:59:55.598Z,5.04
2018-12-01T06:00:55.590Z,4.99
2018-12-01T06:01:55.624Z,5.16
2018-12-01T06:02:55.594Z,5.16
2018-12-01T06:03:55.552Z,5.17
2018-12-01T06:04:55.535Z,5.14
2018-12-01T06:05:55.541Z,4.92
2018-12-01T06:06:55.525Z,4.79
2018-12-01T06:07:55.535Z,4.80
2018-12-01T06:08:55.501Z,4.79
2018-12-01T06:09:55.485Z,4.75
2018-12-01T06:10:55.526Z,4.75
2018-12-01T06:11:55.460Z,4.83
2018-12-01T06:12:55.481Z,4.73
2018-12-01T06:13:55.483Z,4.72
2018-12-01T06:14:55.437Z,4.70
2018-12-01T06:15:55.433Z,4.77
2018-12-01T06:16:55.407Z,4.69
2018-12-01T06:17:55.416Z,4.70
2018-12-01T06:18:55.390Z,4.52
2018-12-01T06:19:55.415Z,4.64
2018-12-01T06:20:55.364Z,4.83
2018-12-01T06:21:55.353Z,4.89
2018-12-01T06:22:55.367Z,4.98
2018-12-01T06:23:55.333Z,5.23
2018-12-01T06:24:55.326Z,5.28
2018-12-01T06:25:55.360Z,5.32
2018-12-01T06:26:55.313Z,5.43
2018-12-01T06:27:55.308Z,5.43
2018-12-01T06:28:55.272Z,5.50
2018-12-01T06:29:55.260Z,5.55
2018-12-01T06:30:55.248Z,5.57
2018-12-01T06:31:55.236Z,5.60
2018-12-01T06:32:55.261Z,5.57
2018-12-01T06:33:55.242Z,5.68
2018-12-01T06:34:55.204Z,5.98
2018-12-01T06:35:55.193Z,6.04
2018-12-01T06:36:55.183Z,5.93
2018-12-01T06:37:55.194Z,5.83
2018-12-01T06:38:55.159Z,5.93
2018-12-01T06:39:55.150Z,5.95
2018-12-01T06:40:55.138Z,5.95
2018-12-01T06:41:55.127Z,5.88
2018-12-01T06:42:55.174Z,5.73
2018-12-01T06:43:55.103Z,5.81
2018-12-01T06:44:55.086Z,5.83
2018-12-01T06:45:55.077Z,5.74
2018-12-01T06:46:55.071Z,5.78
2018-12-01T06:47:55.085Z,5.91
2018-12-01T06:48:55.090Z,5.85
2018-12-01T06:49:55.032Z,5.89
2018-12-01T06:50:55.020Z,5.73
2018-12-01T06:51:55.013Z,5.52
2018-12-01T06:52:55.025Z,5.37
2018-12-01T06:53:54.990Z,5.23
2018-12-01T06:54:54.984Z,5.34
2018-12-01T06:55:54.963Z,5.31
2018-12-01T06:56:54.959Z,5.32
2018-12-01T06:57:54.987Z,5.32
2018-12-01T06:58:54.932Z,5.19
2018-12-01T06:59:54.950Z,5.31
2018-12-01T07:00:54.912Z,5.43
2018-12-01T07:01:54.898Z,5.73
2018-12-01T07:02:54.921Z,5.92
2018-12-01T07:03:54.914Z,5.83
2018-12-01T07:04:54.870Z,5.83
2018-12-01T07:05:54.863Z,5.53
2018-12-01T07:06:54.840Z,5.48
2018-12-01T07:07:54.861Z,5.46
2018-12-01T07:08:54.818Z,5.50
2018-12-01T07:09:54.851Z,5.48
2018-12-01T07:10:54.811Z,5.50
2018-12-01T07:11:54.794Z,5.48
2018-12-01T07:12:54.799Z,5.71
2018-12-01T07:13:54.764Z,5.83
2018-12-01T07:14:54.753Z,6.10
2018-12-01T07:15:54.742Z,6.01
2018-12-01T07:16:54.763Z,6.00
2018-12-01T07:17:54.742Z,5.86
2018-12-01T07:18:54.735Z,5.91
2018-12-01T07:19:54.696Z,5.92
2018-12-01T07:20:54.692Z,6.18
2018-12-01T07:21:54.674Z,6.44
2018-12-01T07:22:54.667Z,6.48
2018-12-01T07:23:54.673Z,6.36
2018-12-01T07:24:54.694Z,6.35
2018-12-01T07:25:54.626Z,6.32
2018-12-01T07:26:54.620Z,6.18
2018-12-01T07:27:54.607Z,6.18
2018-12-01T07:28:54.620Z,6.04
2018-12-01T07:29:58.079Z,6.01
2018-12-01T07:30:54.576Z,6.00
2018-12-01T07:31:54.574Z,6.16
2018-12-01T07:32:54.547Z,6.53
2018-12-01T07:33:54.597Z,6.91
2018-12-01T07:34:54.529Z,6.87
2018-12-01T07:35:54.526Z,6.80
2018-12-01T07:36:54.511Z,6.84
2018-12-01T07:37:54.497Z,7.13
2018-12-01T07:38:54.507Z,7.12
2018-12-01T07:39:54.467Z,7.15
2018-12-01T07:40:54.464Z,7.15
2018-12-01T07:41:54.448Z,7.15
2018-12-01T07:42:54.440Z,7.12
2018-12-01T07:43:54.447Z,7.15
2018-12-01T07:44:54.476Z,7.01
2018-12-01T07:45:54.411Z,6.98
2018-12-01T07:46:54.388Z,6.86
2018-12-01T07:47:54.384Z,6.81
2018-12-01T07:48:54.392Z,6.81
2018-12-01T07:49:54.366Z,6.68
2018-12-01T07:50:54.351Z,6.72
2018-12-01T07:51:54.390Z,6.77
2018-12-01T07:52:54.332Z,6.76
2018-12-01T07:53:54.341Z,6.65
2018-12-01T07:54:54.307Z,6.71
2018-12-01T07:55:54.295Z,6.72
2018-12-01T07:56:54.280Z,6.73
2018-12-01T07:57:54.266Z,6.71
2018-12-01T07:58:54.279Z,6.68
2018-12-01T07:59:54.249Z,6.76
2018-12-01T08:00:54.238Z,6.87
2018-12-01T08:01:54.216Z,6.98
2018-12-01T08:02:54.216Z,7.05
2018-12-01T08:03:54.285Z,7.01
2018-12-01T08:04:54.185Z,7.05
2018-12-01T08:05:54.186Z,7.12
2018-12-01T08:06:54.171Z,7.13
2018-12-01T08:07:54.164Z,7.29
2018-12-01T08:08:54.215Z,7.52
2018-12-01T08:09:54.135Z,7.58
2018-12-01T08:10:54.137Z,7.58
2018-12-01T08:11:54.108Z,7.47
2018-12-01T08:12:54.109Z,7.49
2018-12-01T08:13:54.119Z,7.58
2018-12-01T08:14:54.080Z,7.66
2018-12-01T08:15:54.124Z,7.78
2018-12-01T08:16:54.061Z,7.77
2018-12-01T08:17:54.046Z,7.82
2018-12-01T08:18:54.103Z,7.75
2018-12-01T08:19:54.030Z,7.77
2018-12-01T08:20:54.013Z,7.72
2018-12-01T08:21:54.010Z,7.72
2018-12-01T08:22:54.004Z,7.69
2018-12-01T08:23:54.007Z,7.56
2018-12-01T08:24:53.972Z,7.56
2018-12-01T08:25:54.006Z,7.67
2018-12-01T08:26:53.954Z,7.82
2018-12-01T08:27:53.945Z,7.92
2018-12-01T08:28:53.980Z,7.84
2018-12-01T08:29:53.911Z,7.90
2018-12-01T08:30:53.905Z,8.00
2018-12-01T08:31:53.894Z,8.07
2018-12-01T08:32:53.921Z,8.26
2018-12-01T08:33:53.895Z,8.20
2018-12-01T08:34:53.862Z,8.17
2018-12-01T08:35:53.854Z,8.32
2018-12-01T08:36:53.843Z,8.39
2018-12-01T08:37:53.831Z,8.36
2018-12-01T08:38:53.872Z,8.32
2018-12-01T08:39:53.807Z,8.44
2018-12-01T08:40:53.791Z,8.51
2018-12-01T08:41:53.782Z,8.53
2018-12-01T08:42:53.781Z,8.51
2018-12-01T08:43:53.799Z,8.65
2018-12-01T08:44:53.751Z,8.81
2018-12-01T08:45:53.738Z,8.71
2018-12-01T08:46:53.726Z,8.63
2018-12-01T08:47:53.719Z,8.81
2018-12-01T08:48:53.761Z,8.76
2018-12-01T08:49:53.698Z,8.62
2018-12-01T08:50:53.683Z,8.65
2018-12-01T08:51:53.668Z,8.57
2018-12-01T08:52:53.659Z,8.62
2018-12-01T08:53:53.675Z,8.54
2018-12-01T08:54:53.635Z,8.50
2018-12-01T08:55:53.662Z,8.47
2018-12-01T08:56:53.621Z,8.54
2018-12-01T08:57:53.608Z,8.58
2018-12-01T08:58:53.615Z,8.75
2018-12-01T08:59:53.593Z,8.72
2018-12-01T09:00:53.564Z,8.84
2018-12-01T09:01:53.562Z,8.79
2018-12-01T09:02:53.601Z,8.69
2018-12-01T09:03:53.563Z,8.68
2018-12-01T09:04:53.519Z,8.55
2018-12-01T09:05:53.532Z,8.65
2018-12-01T09:06:53.533Z,8.69
2018-12-01T09:07:53.492Z,8.63
2018-12-01T09:08:53.483Z,8.63
2018-12-01T09:09:53.503Z,8.68
2018-12-01T09:10:53.457Z,8.79
2018-12-01T09:11:53.450Z,8.84
2018-12-01T09:12:53.466Z,8.66
2018-12-01T09:13:53.427Z,8.72
2018-12-01T09:14:53.445Z,8.65
2018-12-01T09:15:53.403Z,8.71
2018-12-01T09:16:53.391Z,8.66
2018-12-01T09:17:53.383Z,8.62
2018-12-01T09:18:53.382Z,8.71
2018-12-01T09:19:53.378Z,8.69
2018-12-01T09:20:53.352Z,8.75
2018-12-01T09:21:53.338Z,8.65
2018-12-01T09:22:53.397Z,8.63
2018-12-01T09:23:53.319Z,8.71
2018-12-01T09:24:53.326Z,8.66
2018-12-01T09:25:53.291Z,8.65
2018-12-01T09:26:53.314Z,8.68
2018-12-01T09:27:53.274Z,8.73
2018-12-01T09:28:53.264Z,8.69
2018-12-01T09:29:53.277Z,8.79
2018-12-01T09:30:53.235Z,8.88
2018-12-01T09:31:53.231Z,8.93
2018-12-01T09:32:53.218Z,8.88
2018-12-01T09:33:53.198Z,8.79
2018-12-01T09:34:53.279Z,8.99
2018-12-01T09:35:53.178Z,8.99
2018-12-01T09:36:53.172Z,8.99
2018-12-01T09:37:53.208Z,8.99
2018-12-01T09:38:53.145Z,8.96
2018-12-01T09:39:53.165Z,9.15
2018-12-01T09:40:53.130Z,9.09
2018-12-01T09:41:53.113Z,9.06
2018-12-01T09:42:53.104Z,9.13
2018-12-01T09:43:53.083Z,9.10
2018-12-01T09:44:53.145Z,9.18
2018-12-01T09:45:53.071Z,9.24
2018-12-01T09:46:53.060Z,9.21
2018-12-01T09:47:53.046Z,9.20
2018-12-01T09:48:53.034Z,9.31
2018-12-01T09:49:53.088Z,9.24
2018-12-01T09:50:53.016Z,9.24
2018-12-01T09:51:53.003Z,9.38
2018-12-01T09:52:53.003Z,9.32
2018-12-01T09:53:52.980Z,9.39
2018-12-01T09:54:53.468Z,9.40
2018-12-01T09:55:52.961Z,9.27
2018-12-01T09:56:52.952Z,9.42
2018-12-01T09:57:52.942Z,9.25
2018-12-01T09:58:52.929Z,9.31
2018-12-01T09:59:52.937Z,9.31
2018-12-01T10:00:52.959Z,9.40
2018-12-01T10:01:52.897Z,9.24
2018-12-01T10:02:52.888Z,9.34
2018-12-01T10:03:52.877Z,9.48
2018-12-01T10:04:52.887Z,9.40
2018-12-01T10:05:52.854Z,9.31
2018-12-01T10:06:52.840Z,9.25
2018-12-01T10:07:52.842Z,9.35
2018-12-01T10:08:52.813Z,9.39
2018-12-01T10:09:52.831Z,9.39
2018-12-01T10:10:52.806Z,9.43
2018-12-01T10:11:52.772Z,9.57
2018-12-01T10:12:52.784Z,9.68
2018-12-01T10:13:52.761Z,9.79
2018-12-01T10:14:52.773Z,9.81
2018-12-01T10:15:52.787Z,9.83
2018-12-01T10:16:52.720Z,9.81
2018-12-01T10:17:52.742Z,9.82
2018-12-01T10:18:56.470Z,9.86
2018-12-01T10:19:52.714Z,9.91
2018-12-01T10:20:52.680Z,10.04
2018-12-01T10:21:52.671Z,10.09
2018-12-01T10:22:52.654Z,10.14
2018-12-01T10:23:52.670Z,10.26
2018-12-01T10:24:52.655Z,10.17
2018-12-01T10:25:52.669Z,10.15
2018-12-01T10:26:52.614Z,10.21
2018-12-01T10:27:52.603Z,10.26
2018-12-01T10:28:52.598Z,10.28
2018-12-01T10:29:52.599Z,10.28
2018-12-01T10:30:52.567Z,10.26
2018-12-01T10:31:52.612Z,10.22
2018-12-01T10:32:52.557Z,10.26
2018-12-01T10:33:52.534Z,10.19
2018-12-01T10:34:52.544Z,10.25
2018-12-01T10:35:52.551Z,10.28
2018-12-01T10:36:52.510Z,10.32
2018-12-01T10:37:52.493Z,10.25
2018-12-01T10:38:52.475Z,10.25
2018-12-01T10:39:52.561Z,10.26
2018-12-01T10:40:52.453Z,10.28
2018-12-01T10:41:52.450Z,10.25
2018-12-01T10:42:52.437Z,10.26
2018-12-01T10:43:52.420Z,10.25
2018-12-01T10:44:52.436Z,10.24
2018-12-01T10:45:52.445Z,10.30
2018-12-01T10:46:52.395Z,10.18
2018-12-01T10:47:52.373Z,10.26
2018-12-01T10:48:52.372Z,10.28
2018-12-01T10:49:52.439Z,10.33
2018-12-01T10:50:52.346Z,10.19
2018-12-01T10:51:52.334Z,10.30
2018-12-01T10:52:52.340Z,10.26
2018-12-01T10:53:52.300Z,10.24
2018-12-01T10:54:52.330Z,10.36
2018-12-01T10:55:52.330Z,10.37
2018-12-01T10:56:52.286Z,10.30
2018-12-01T10:57:52.270Z,10.39
2018-12-01T10:58:52.244Z,10.37
2018-12-01T10:59:52.272Z,10.34
2018-12-01T11:00:52.230Z,10.36
2018-12-01T11:01:52.294Z,10.32
2018-12-01T11:02:55.572Z,10.30
2018-12-01T11:03:52.213Z,10.37
2018-12-01T11:04:52.207Z,10.40
2018-12-01T11:05:52.182Z,10.43
2018-12-01T11:06:52.155Z,10.33
2018-12-01T11:07:52.145Z,10.37
2018-12-01T11:08:52.137Z,10.34
2018-12-01T11:09:52.194Z,10.30
2018-12-01T11:10:55.242Z,10.42
2018-12-01T11:11:52.107Z,10.36
2018-12-01T11:12:52.154Z,10.22
2018-12-01T11:13:52.087Z,10.26
2018-12-01T11:14:52.079Z,10.21
2018-12-01T11:15:52.082Z,10.19
2018-12-01T11:16:52.055Z,10.26
2018-12-01T11:17:52.094Z,10.17
2018-12-01T11:18:52.040Z,10.22
2018-12-01T11:19:52.014Z,10.24
2018-12-01T11:20:52.029Z,10.32
2018-12-01T11:21:52.009Z,10.36
2018-12-01T11:22:51.987Z,10.32
2018-12-01T11:23:51.971Z,10.32
2018-12-01T11:24:52.030Z,10.32
2018-12-01T11:25:51.984Z,10.21
2018-12-01T11:26:51.937Z,10.30
2018-12-01T11:27:51.933Z,10.33
2018-12-01T11:28:51.965Z,10.33
2018-12-01T11:29:51.902Z,10.34
2018-12-01T11:30:51.921Z,10.37
2018-12-01T11:31:51.882Z,10.43
2018-12-01T11:32:51.882Z,10.46
2018-12-01T11:33:51.854Z,10.55
2018-12-01T11:34:51.863Z,10.71
2018-12-01T11:35:51.853Z,10.66
2018-12-01T11:36:51.830Z,10.65
2018-12-01T11:37:51.825Z,10.76
2018-12-01T11:38:51.844Z,10.68
2018-12-01T11:39:51.798Z,10.77
2018-12-01T11:40:51.808Z,10.73
2018-12-01T11:41:51.775Z,10.74
2018-12-01T11:42:51.756Z,10.77
2018-12-01T11:43:51.748Z,10.84
2018-12-01T11:44:56.803Z,10.89
2018-12-01T11:45:52.753Z,10.95
2018-12-01T11:46:51.771Z,10.89
2018-12-01T11:47:51.711Z,10.88
2018-12-01T11:48:51.686Z,10.91
2018-12-01T11:49:51.685Z,10.91
2018-12-01T11:50:51.698Z,10.77
2018-12-01T11:51:51.669Z,10.94
2018-12-01T11:52:51.643Z,10.88
2018-12-01T11:53:51.638Z,10.80
2018-12-01T11:54:51.639Z,10.94
2018-12-01T11:55:51.630Z,10.91
2018-12-01T11:56:51.598Z,10.98
2018-12-01T11:57:51.585Z,10.88
2018-12-01T11:58:51.573Z,10.98
2018-12-01T11:59:51.575Z,11.10
2018-12-01T12:00:51.592Z,11.07
2018-12-01T12:01:51.549Z,11.13
2018-12-01T12:02:51.571Z,11.09
2018-12-01T12:03:51.537Z,10.84
2018-12-01T12:04:51.519Z,10.89
2018-12-01T12:05:51.532Z,10.88
2018-12-01T12:06:51.494Z,10.95
2018-12-01T12:07:51.482Z,10.91
2018-12-01T12:08:51.511Z,10.95
2018-12-01T12:09:51.460Z,10.88
2018-12-01T12:10:51.474Z,10.84
2018-12-01T12:11:51.447Z,10.83
2018-12-01T12:12:51.418Z,10.86
2018-12-01T12:13:51.416Z,10.84
2018-12-01T12:14:52.196Z,10.89
2018-12-01T12:15:51.416Z,10.92
2018-12-01T12:16:51.387Z,10.89
2018-12-01T12:17:51.364Z,10.91
2018-12-01T12:18:51.395Z,10.96
2018-12-01T12:19:51.343Z,10.78
2018-12-01T12:20:51.356Z,11.03
2018-12-01T12:21:51.369Z,10.88
2018-12-01T12:22:51.307Z,10.89
2018-12-01T12:23:51.298Z,10.84
2018-12-01T12:24:51.290Z,10.92
2018-12-01T12:25:51.316Z,11.01
2018-12-01T12:26:51.279Z,10.94
2018-12-01T12:27:51.252Z,10.98
2018-12-01T12:28:51.243Z,10.89
2018-12-01T12:29:51.270Z,10.78
2018-12-01T12:30:51.253Z,10.65
2018-12-01T12:31:51.219Z,10.62
2018-12-01T12:32:51.202Z,10.65
2018-12-01T12:33:51.191Z,10.58
2018-12-01T12:34:51.183Z,10.55
2018-12-01T12:35:51.242Z,10.65
2018-12-01T12:36:51.149Z,10.65
2018-12-01T12:37:51.146Z,10.58
2018-12-01T12:38:51.161Z,10.52
2018-12-01T12:39:51.131Z,10.58
2018-12-01T12:40:51.142Z,10.59
2018-12-01T12:41:51.118Z,10.59
2018-12-01T12:42:51.081Z,10.44
2018-12-01T12:43:51.082Z,10.47
2018-12-01T12:44:51.099Z,10.59
2018-12-01T12:45:51.078Z,10.46
2018-12-01T12:46:51.049Z,10.46
2018-12-01T12:47:51.041Z,10.52
2018-12-01T12:48:51.027Z,10.40
2018-12-01T12:49:51.009Z,10.51
2018-12-01T12:50:53.262Z,10.36
2018-12-01T12:51:51.000Z,10.26
2018-12-01T12:52:50.995Z,10.28
2018-12-01T12:53:50.966Z,10.24
2018-12-01T12:54:51.007Z,10.21
2018-12-01T12:55:50.946Z,10.22
2018-12-01T12:56:50.957Z,10.15
2018-12-01T12:57:50.932Z,10.07
2018-12-01T12:58:50.906Z,10.10
2018-12-01T12:59:50.939Z,10.18
2018-12-01T13:00:50.895Z,10.14
2018-12-01T13:01:50.909Z,10.28
2018-12-01T13:02:50.871Z,10.24
2018-12-01T13:03:50.849Z,10.28
2018-12-01T13:04:50.854Z,10.30
2018-12-01T13:05:50.825Z,10.32
2018-12-01T13:06:50.835Z,10.32
2018-12-01T13:07:50.814Z,10.39
2018-12-01T13:08:50.805Z,10.26
2018-12-01T13:09:50.781Z,10.22
2018-12-01T13:10:50.776Z,10.24
2018-12-01T13:11:50.780Z,10.32
2018-12-01T13:12:51.844Z,10.30